Time;durP1;ratioP1;P1;durP2;ratioP2;P2;SDS_P1;SDS_P2;PMS_P1;PMS_P2;Temp;Humidity;BMP_temperature;BMP_pressure;BME280_temperature;BME280_humidity;BME280_pressure;Samples;Min_cycle;Max_cycle;Signal;HPM_P1;HPM_P2
2024/03/16 00:02:13;;;;;;;;;;;;;;;22.99;48.83;94342.38;4976183;28;9160;-66
2024/03/16 00:04:56;;;;;;;;;;;;;;;22.96;49.03;94357.09;4970820;28;7411;-63
2024/03/16 00:07:36;;;;;;;;;;;;;;;22.94;49.20;94348.59;4972874;28;7139;-60
2024/03/16 00:10:33;;;;;;;;;;;;;;;22.95;49.19;94347.34;4958582;28;8806;-60
2024/03/16 00:16:30;;;;;;;;;;;;;;;22.92;48.94;94364.03;4954070;28;9232;-60
2024/03/16 00:18:58;;;;;;;;;;;;;;;22.92;49.17;94353.06;4991167;28;9011;-60
2024/03/16 00:21:24;;;;;;;;;;;;;;;22.91;49.13;94338.59;5012643;28;9096;-60
2024/03/16 00:23:59;;;;;;;;;;;;;;;22.90;49.05;94326.13;5007178;28;8666;-60
2024/03/16 00:26:27;;;;;;;;;;;;;;;22.88;48.98;94322.41;4977075;28;9192;-60
2024/03/16 00:28:53;;;;;;;;;;;;;;;22.88;49.03;94314.19;4995250;28;9318;-60
2024/03/16 00:31:19;;;;;;;;;;;;;;;22.89;48.67;94319.16;4995926;28;9749;-60
2024/03/16 00:33:56;;;;;;;;;;;;;;;22.90;48.76;94314.44;4995675;28;8797;-60
2024/03/16 00:36:34;;;;;;;;;;;;;;;22.89;48.82;94321.91;4996447;28;7142;-60
2024/03/16 00:39:18;;;;;;;;;;;;;;;22.89;49.22;94319.16;4996286;28;10013;-60
2024/03/16 00:42:02;;;;;;;;;;;;;;;22.90;49.47;94323.38;4996327;28;8697;-60
2024/03/16 00:48:30;;;;;;;;;;;;;;;22.86;48.77;94314.66;4992956;28;6761;-60
2024/03/16 00:50:58;;;;;;;;;;;;;;;22.86;49.03;94320.13;5012756;28;9012;-60
2024/03/16 00:53:42;;;;;;;;;;;;;;;22.83;48.87;94315.66;5023923;28;9062;-60
2024/03/16 00:56:46;;;;;;;;;;;;;;;22.82;49.29;94322.38;5050200;28;8755;-60
2024/03/16 00:59:20;;;;;;;;;;;;;;;22.83;49.22;94323.88;5030089;28;9093;-60
2024/03/16 01:02:21;;;;;;;;;;;;;;;22.82;49.05;94321.63;5031207;28;9385;-60
2024/03/16 01:05:11;;;;;;;;;;;;;;;22.83;49.10;94334.09;5016039;28;9040;-60
2024/03/16 01:07:39;;;;;;;;;;;;;;;22.82;48.85;94347.06;5032355;28;9120;-60
2024/03/16 01:10:18;;;;;;;;;;;;;;;22.78;48.71;94338.31;5015486;28;9605;-60
2024/03/16 01:12:56;;;;;;;;;;;;;;;22.82;48.69;94340.81;5034861;28;9127;-60
2024/03/16 01:15:37;;;;;;;;;;;;;;;22.81;48.65;94342.06;5017552;28;9331;-60
2024/03/16 01:18:21;;;;;;;;;;;;;;;22.83;48.71;94345.81;5015836;28;9046;-60
2024/03/16 01:21:06;;;;;;;;;;;;;;;22.83;48.91;94356.78;5029879;28;9506;-60
2024/03/16 01:23:33;;;;;;;;;;;;;;;22.82;48.94;94360.75;5023450;28;9191;-60
2024/03/16 01:26:00;;;;;;;;;;;;;;;22.82;48.61;94365.50;5015402;28;9373;-58
2024/03/16 01:28:28;;;;;;;;;;;;;;;22.77;48.48;94358.00;5027643;28;9358;-59
2024/03/16 01:30:57;;;;;;;;;;;;;;;22.80;48.53;94354.25;5024592;28;9151;-59
2024/03/16 01:33:24;;;;;;;;;;;;;;;22.80;48.71;94352.28;5028659;28;9045;-59
2024/03/16 01:35:58;;;;;;;;;;;;;;;22.80;48.69;94360.50;5069651;28;9498;-59
2024/03/16 01:38:36;;;;;;;;;;;;;;;22.79;48.56;94361.75;5051865;28;9110;-59
2024/03/16 01:41:05;;;;;;;;;;;;;;;22.74;48.91;94337.81;5035302;28;9346;-59
2024/03/16 01:43:31;;;;;;;;;;;;;;;22.77;48.91;94358.00;5042768;28;9375;-59
2024/03/16 01:45:57;;;;;;;;;;;;;;;22.78;48.76;94348.53;5044398;28;9361;-59
2024/03/16 01:48:24;;;;;;;;;;;;;;;22.76;48.25;94334.56;5047395;28;8999;-59
2024/03/16 01:50:53;;;;;;;;;;;;;;;22.80;48.70;94324.09;5049305;28;8761;-59
2024/03/16 01:53:32;;;;;;;;;;;;;;;22.80;48.19;94324.09;5051217;28;9380;-59
2024/03/16 01:56:53;;;;;;;;;;;;;;;22.81;48.38;94320.13;5049445;28;8992;-59
2024/03/16 01:59:38;;;;;;;;;;;;;;;22.80;48.71;94326.84;5034461;28;8998;-59
2024/03/16 02:02:42;;;;;;;;;;;;;;;22.78;48.79;94308.16;5049126;28;8798;-59
2024/03/16 02:05:14;;;;;;;;;;;;;;;22.76;48.20;94298.91;5044782;28;9417;-59
2024/03/16 02:08:15;;;;;;;;;;;;;;;22.77;48.78;94301.16;5052702;28;9638;-58
2024/03/16 02:10:52;;;;;;;;;;;;;;;22.78;48.59;94297.19;5052449;28;9009;-58
2024/03/16 02:13:38;;;;;;;;;;;;;;;22.76;48.42;94296.94;5048985;28;9438;-59
2024/03/16 02:16:39;;;;;;;;;;;;;;;22.77;48.78;94294.94;5033360;28;9349;-59
2024/03/16 02:19:35;;;;;;;;;;;;;;;22.74;48.67;94285.72;5050230;28;8833;-59
2024/03/16 02:22:33;;;;;;;;;;;;;;;22.76;48.65;94283.22;5000723;28;9748;-59
2024/03/16 02:25:10;;;;;;;;;;;;;;;22.75;48.49;94291.94;5011602;28;9157;-59
2024/03/16 02:27:37;;;;;;;;;;;;;;;22.73;48.41;94289.69;5004859;28;9005;-59
2024/03/16 02:30:10;;;;;;;;;;;;;;;22.73;48.42;94300.66;5015305;28;9118;-59
2024/03/16 02:32:38;;;;;;;;;;;;;;;22.70;48.92;94284.44;5015472;28;9102;-59
2024/03/16 02:35:40;;;;;;;;;;;;;;;22.74;48.69;94291.19;5015086;28;10122;-59
2024/03/16 02:38:09;;;;;;;;;;;;;;;22.71;48.65;94281.22;4965534;28;9174;-66
2024/03/16 02:41:07;;;;;;;;;;;;;;;22.74;48.70;94293.94;4959706;28;9479;-66
2024/03/16 02:43:52;;;;;;;;;;;;;;;22.75;48.34;94295.41;4972884;28;9001;-66
2024/03/16 02:46:22;;;;;;;;;;;;;;;22.76;48.42;94301.66;4959182;28;9487;-66
2024/03/16 02:48:48;;;;;;;;;;;;;;;22.75;48.93;94302.91;4981815;28;8992;-66
2024/03/16 02:51:30;;;;;;;;;;;;;;;22.76;48.65;94307.91;4956783;28;7702;-66
2024/03/16 02:54:27;;;;;;;;;;;;;;;22.74;48.63;94310.38;4936524;28;9115;-66
2024/03/16 02:57:14;;;;;;;;;;;;;;;22.76;48.49;94318.09;4959648;28;8823;-66
2024/03/16 02:59:41;;;;;;;;;;;;;;;22.75;48.44;94327.59;4959794;28;8722;-66
2024/03/16 03:02:22;;;;;;;;;;;;;;;22.75;48.16;94328.31;4977770;28;8580;-67
2024/03/16 03:05:03;;;;;;;;;;;;;;;22.70;48.45;94318.09;4967659;28;8778;-67
2024/03/16 03:08:16;;;;;;;;;;;;;;;22.78;48.58;94345.78;4975868;28;7256;-66
2024/03/16 03:10:45;;;;;;;;;;;;;;;22.77;48.25;94345.03;4938497;28;9183;-66
2024/03/16 03:13:11;;;;;;;;;;;;;;;22.76;48.49;94340.81;4975904;28;8780;-66
2024/03/16 03:15:37;;;;;;;;;;;;;;;22.77;48.19;94350.50;4973937;28;8730;-66
2024/03/16 03:18:05;;;;;;;;;;;;;;;22.77;48.35;94345.03;4969761;28;9026;-67
2024/03/16 03:20:32;;;;;;;;;;;;;;;22.75;48.45;94350.25;4983003;28;9181;-66
2024/03/16 03:22:59;;;;;;;;;;;;;;;22.76;48.29;94346.28;4964330;28;7201;-66
2024/03/16 03:25:24;;;;;;;;;;;;;;;22.79;48.34;94355.53;4965352;28;9161;-66
2024/03/16 03:27:50;;;;;;;;;;;;;;;22.73;48.41;94339.03;4972496;28;9100;-66
2024/03/16 03:30:16;;;;;;;;;;;;;;;22.72;48.42;94337.56;4961178;28;9066;-67
2024/03/16 03:32:53;;;;;;;;;;;;;;;22.78;48.72;94345.78;4969973;28;9426;-66
2024/03/16 03:35:37;;;;;;;;;;;;;;;22.77;48.57;94339.53;4979270;28;9389;-66
2024/03/16 03:38:22;;;;;;;;;;;;;;;22.78;48.31;94332.84;4998950;28;7089;-66
2024/03/16 03:44:38;;;;;;;;;;;;;;;22.76;48.22;94327.09;5001239;28;9333;-67
2024/03/16 03:47:19;;;;;;;;;;;;;;;22.73;48.33;94330.81;5002706;28;9040;-61
2024/03/16 03:50:26;;;;;;;;;;;;;;;22.77;48.05;94339.53;5044382;28;9091;-60
2024/03/16 03:53:26;;;;;;;;;;;;;;;22.77;48.01;94339.53;5054465;28;8923;-60
2024/03/16 03:55:53;;;;;;;;;;;;;;;22.76;48.15;94334.56;5052625;28;9467;-60
2024/03/16 03:58:48;;;;;;;;;;;;;;;22.78;48.32;94341.06;5034653;28;9413;-60
2024/03/16 04:01:59;;;;;;;;;;;;;;;22.75;48.00;94331.06;5022733;28;8999;-60
2024/03/16 04:04:25;;;;;;;;;;;;;;;22.77;48.22;94341.56;5032665;28;9723;-60
2024/03/16 04:06:51;;;;;;;;;;;;;;;22.76;48.08;94340.81;5027280;28;9388;-60
2024/03/16 04:09:37;;;;;;;;;;;;;;;22.76;47.99;94346.28;5049123;28;9224;-60
2024/03/16 04:12:05;;;;;;;;;;;;;;;22.76;47.94;94351.78;5032387;28;8853;-60
2024/03/16 04:15:07;;;;;;;;;;;;;;;22.76;48.32;94342.78;5017036;28;9116;-60
2024/03/16 04:17:51;;;;;;;;;;;;;;;22.76;47.94;94324.34;4938535;28;9889;-60
2024/03/16 04:20:42;;;;;;;;;;;;;;;22.78;47.95;94343.81;4959289;28;7133;-60
2024/03/16 04:23:19;;;;;;;;;;;;;;;22.74;47.99;94337.81;4958683;28;9085;-60
2024/03/16 04:25:45;;;;;;;;;;;;;;;22.73;48.77;94330.81;4966496;28;8966;-60
2024/03/16 04:28:12;;;;;;;;;;;;;;;22.76;48.02;94340.81;4955130;28;8712;-60
2024/03/16 04:30:38;;;;;;;;;;;;;;;22.73;47.97;94338.31;4943403;28;9028;-60
2024/03/16 04:33:30;;;;;;;;;;;;;;;22.76;47.79;94351.78;4957584;28;8978;-61
2024/03/16 04:36:12;;;;;;;;;;;;;;;22.77;47.80;94358.75;4966512;28;9052;-60
2024/03/16 04:38:40;;;;;;;;;;;;;;;22.74;48.11;94354.25;4971331;28;8785;-60
2024/03/16 04:41:32;;;;;;;;;;;;;;;22.77;48.27;94364.22;4971647;28;8737;-60
2024/03/16 04:43:58;;;;;;;;;;;;;;;22.79;47.94;94366.50;4968695;28;9038;-61
2024/03/16 04:46:32;;;;;;;;;;;;;;;22.77;47.84;94361.47;4982403;28;7248;-60
2024/03/16 04:49:18;;;;;;;;;;;;;;;22.79;48.04;94361.75;4976949;28;9391;-61
2024/03/16 04:52:05;;;;;;;;;;;;;;;22.76;47.94;94367.47;5032486;28;9116;-60
2024/03/16 04:54:45;;;;;;;;;;;;;;;22.74;47.73;94362.47;5052427;28;8915;-60
2024/03/16 04:57:26;;;;;;;;;;;;;;;22.68;48.07;94355.47;5046022;28;9243;-59
2024/03/16 05:00:04;;;;;;;;;;;;;;;22.73;47.99;94354.75;5058951;28;9431;-59
2024/03/16 05:02:32;;;;;;;;;;;;;;;22.73;48.09;94355.47;5042282;28;9085;-58
2024/03/16 05:05:00;;;;;;;;;;;;;;;22.73;47.99;94366.44;5053668;28;8788;-59
2024/03/16 05:07:43;;;;;;;;;;;;;;;22.73;47.95;94376.69;5042552;28;8877;-59
2024/03/16 05:10:15;;;;;;;;;;;;;;;22.74;47.83;94375.44;5049212;28;9091;-59
2024/03/16 05:12:55;;;;;;;;;;;;;;;22.74;48.04;94373.44;5033558;28;8776;-59
2024/03/16 05:15:26;;;;;;;;;;;;;;;22.74;48.08;94367.97;5052513;28;9074;-58
2024/03/16 05:17:53;;;;;;;;;;;;;;;22.76;47.96;94379.19;5049603;28;8997;-59
2024/03/16 05:20:29;;;;;;;;;;;;;;;22.75;47.69;94371.47;5034695;28;9039;-59
2024/03/16 05:22:56;;;;;;;;;;;;;;;22.73;47.66;94382.91;5034560;28;8614;-58
2024/03/16 05:26:00;;;;;;;;;;;;;;;22.74;47.66;94383.66;5052465;28;8670;-59
2024/03/16 05:28:26;;;;;;;;;;;;;;;22.75;47.91;94383.16;5018119;28;9020;-59
2024/03/16 05:30:57;;;;;;;;;;;;;;;22.74;47.99;94384.41;5021689;28;8665;-59
2024/03/16 05:33:42;;;;;;;;;;;;;;;22.75;47.63;94385.91;5024344;28;9061;-59
2024/03/16 05:36:18;;;;;;;;;;;;;;;22.75;48.10;94396.13;5037411;28;9700;-59
2024/03/16 05:38:46;;;;;;;;;;;;;;;22.74;48.12;94392.63;5032343;28;8696;-59
2024/03/16 05:41:25;;;;;;;;;;;;;;;22.74;48.10;94400.09;5023098;28;9395;-59
2024/03/16 05:44:02;;;;;;;;;;;;;;;22.70;47.59;94405.84;5025752;28;8700;-59
2024/03/16 05:46:28;;;;;;;;;;;;;;;22.72;47.63;94411.56;5023765;28;9278;-59
2024/03/16 05:49:03;;;;;;;;;;;;;;;22.73;48.03;94418.53;5022724;28;9023;-59
2024/03/16 05:51:55;;;;;;;;;;;;;;;22.72;48.00;94416.31;5017068;28;8992;-59
2024/03/16 05:54:42;;;;;;;;;;;;;;;22.68;47.90;94422.03;5015981;28;9035;-59
2024/03/16 05:57:46;;;;;;;;;;;;;;;22.73;47.94;94421.28;5031412;28;8732;-59
2024/03/16 06:01:04;;;;;;;;;;;;;;;22.73;47.70;94426.78;5040210;28;8717;-59
2024/03/16 06:04:01;;;;;;;;;;;;;;;22.73;47.78;94431.53;5051899;28;9064;-64
2024/03/16 06:06:57;;;;;;;;;;;;;;;22.74;47.76;94435.75;5050992;28;7090;-63
2024/03/16 06:09:23;;;;;;;;;;;;;;;22.74;47.69;94442.00;5043015;28;9288;-64
2024/03/16 06:12:30;;;;;;;;;;;;;;;22.76;47.97;94444.22;5039099;28;9298;-64
2024/03/16 06:15:10;;;;;;;;;;;;;;;22.75;47.46;94443.47;4998979;28;9055;-64
2024/03/16 06:17:37;;;;;;;;;;;;;;;22.72;47.71;94439.00;5008604;28;9137;-68
2024/03/16 06:20:21;;;;;;;;;;;;;;;22.78;48.00;94449.97;5019879;28;8956;-71
2024/03/16 06:22:49;;;;;;;;;;;;;;;22.78;47.37;94450.72;5015670;28;7095;-64
2024/03/16 06:26:17;;;;;;;;;;;;;;;22.79;47.98;94451.50;5024525;28;8691;-70
2024/03/16 06:28:46;;;;;;;;;;;;;;;22.79;47.54;94460.47;4929543;29;7280;-69
2024/03/16 06:31:23;;;;;;;;;;;;;;;22.79;47.60;94452.25;4932053;28;8903;-70
2024/03/16 06:33:55;;;;;;;;;;;;;;;22.77;47.63;94484.88;4937257;28;9370;-70
2024/03/16 06:36:23;;;;;;;;;;;;;;;22.78;47.65;94463.69;4941546;28;9342;-70
2024/03/16 06:39:10;;;;;;;;;;;;;;;22.75;48.28;94479.13;4942959;28;9089;-70
2024/03/16 06:41:46;;;;;;;;;;;;;;;22.74;47.49;94479.63;4928968;28;9170;-69
2024/03/16 06:44:11;;;;;;;;;;;;;;;22.77;47.93;94473.91;4941799;28;7490;-68
2024/03/16 06:46:46;;;;;;;;;;;;;;;22.76;47.99;94499.06;4971872;28;9396;-68
2024/03/16 06:49:22;;;;;;;;;;;;;;;22.79;48.15;94503.59;4982392;28;9891;-69
2024/03/16 06:52:37;;;;;;;;;;;;;;;22.83;47.54;94498.63;4978339;28;9490;-69
2024/03/16 06:55:13;;;;;;;;;;;;;;;22.84;47.93;94492.66;4976900;28;8799;-70
2024/03/16 06:57:59;;;;;;;;;;;;;;;22.85;47.74;94485.94;4969591;28;8961;-70
2024/03/16 07:00:29;;;;;;;;;;;;;;;22.88;47.85;94487.69;5043806;28;9144;-63
2024/03/16 07:03:15;;;;;;;;;;;;;;;22.94;47.75;94493.22;5043291;28;9351;-64
2024/03/16 07:05:59;;;;;;;;;;;;;;;22.96;48.27;94496.97;5046109;28;7130;-59
2024/03/16 07:08:31;;;;;;;;;;;;;;;23.00;47.70;94491.25;5047195;28;8729;-62
2024/03/16 07:10:57;;;;;;;;;;;;;;;23.00;47.99;94496.72;5037464;28;9259;-60
2024/03/16 07:14:17;;;;;;;;;;;;;;;23.02;47.85;94491.50;5049584;28;9215;-60
2024/03/16 07:17:14;;;;;;;;;;;;;;;23.03;47.90;94498.50;5040386;28;9022;-60
2024/03/16 07:19:51;;;;;;;;;;;;;;;22.99;47.63;94490.47;5024224;28;8185;-60
2024/03/16 07:22:18;;;;;;;;;;;;;;;23.06;48.35;94495.50;5029405;28;9094;-60
2024/03/16 07:24:49;;;;;;;;;;;;;;;23.04;47.46;94491.75;5033651;28;8777;-61
2024/03/16 07:27:15;;;;;;;;;;;;;;;23.03;46.31;94501.97;5042466;28;9560;-60
2024/03/16 07:29:43;;;;;;;;;;;;;;;23.00;46.60;94508.44;5025737;28;8750;-60
2024/03/16 07:32:09;;;;;;;;;;;;;;;23.01;47.43;94506.47;5025789;28;7098;-61
2024/03/16 07:34:37;;;;;;;;;;;;;;;23.02;47.14;94505.97;5019023;28;10119;-61
2024/03/16 07:37:05;;;;;;;;;;;;;;;23.02;47.75;94505.97;5033076;28;8786;-60
2024/03/16 07:39:33;;;;;;;;;;;;;;;23.10;47.25;94509.75;5027667;28;9107;-60
2024/03/16 07:42:30;;;;;;;;;;;;;;;23.15;47.56;94520.00;5030921;28;8999;-60
2024/03/16 07:45:05;;;;;;;;;;;;;;;23.19;47.42;94526.00;4976496;28;9412;-60
2024/03/16 07:47:32;;;;;;;;;;;;;;;23.25;47.44;94526.78;4985479;28;9017;-60
2024/03/16 07:49:57;;;;;;;;;;;;;;;23.33;46.90;94529.84;4973986;28;9109;-59
2024/03/16 07:52:23;;;;;;;;;;;;;;;23.37;49.62;94529.59;4970773;28;9321;-59
2024/03/16 07:55:00;;;;;;;;;;;;;;;23.48;50.37;94535.91;4980959;28;9000;-59
2024/03/16 07:57:37;;;;;;;;;;;;;;;23.59;50.71;94548.91;4963801;28;9855;-58
2024/03/16 08:00:15;;;;;;;;;;;;;;;23.93;68.57;94548.53;4951855;28;8744;-59
2024/03/16 08:02:55;;;;;;;;;;;;;;;24.44;72.05;94552.13;4965544;28;8998;-59
2024/03/16 08:05:37;;;;;;;;;;;;;;;24.90;73.53;94546.16;4949288;28;9491;-59
2024/03/16 08:08:07;;;;;;;;;;;;;;;25.28;73.11;94559.06;4954910;28;7004;-61
2024/03/16 08:10:42;;;;;;;;;;;;;;;25.56;64.95;94553.50;4955712;28;8945;-60
2024/03/16 08:13:08;;;;;;;;;;;;;;;25.57;54.70;94555.75;4949211;28;9295;-58
2024/03/16 08:15:37;;;;;;;;;;;;;;;25.51;52.08;94557.78;4957656;28;9064;-62
2024/03/16 08:18:04;;;;;;;;;;;;;;;25.51;58.49;94571.56;4951115;28;9251;-62
2024/03/16 08:20:32;;;;;;;;;;;;;;;25.56;64.05;94565.28;4960192;28;8963;-65
2024/03/16 08:23:07;;;;;;;;;;;;;;;25.69;65.58;94568.22;5057168;28;9315;-64
2024/03/16 08:25:36;;;;;;;;;;;;;;;25.81;65.51;94572.44;5041460;28;9557;-65
2024/03/16 08:28:02;;;;;;;;;;;;;;;25.89;66.02;94569.91;5035832;28;8965;-65
2024/03/16 08:30:28;;;;;;;;;;;;;;;25.96;65.55;94581.13;5050099;28;9078;-66
2024/03/16 08:33:20;;;;;;;;;;;;;;;26.03;63.28;94572.31;5045917;28;9381;-63
2024/03/16 08:36:05;;;;;;;;;;;;;;;26.06;55.86;94584.34;5044923;28;6955;-65
2024/03/16 08:38:46;;;;;;;;;;;;;;;25.94;49.54;94583.66;5057733;28;9029;-64
2024/03/16 08:41:22;;;;;;;;;;;;;;;25.74;47.26;94583.22;5042377;28;9215;-63
2024/03/16 08:43:49;;;;;;;;;;;;;;;25.57;48.83;94582.56;5041026;28;7093;-63
2024/03/16 08:46:18;;;;;;;;;;;;;;;25.37;49.60;94583.59;5047374;28;9333;-62
2024/03/16 08:48:45;;;;;;;;;;;;;;;25.15;49.23;94587.13;5038158;28;9061;-63
2024/03/16 08:51:11;;;;;;;;;;;;;;;24.97;49.24;94600.69;5039146;28;8718;-62
2024/03/16 08:53:37;;;;;;;;;;;;;;;24.77;49.24;94585.19;5048150;28;9087;-63
2024/03/16 08:56:06;;;;;;;;;;;;;;;24.61;49.64;94586.63;5048577;28;9232;-61
2024/03/16 08:59:04;;;;;;;;;;;;;;;24.49;48.75;94592.63;5060021;28;8874;-61
2024/03/16 09:01:44;;;;;;;;;;;;;;;24.32;49.63;94587.09;4974977;28;8806;-61
2024/03/16 09:04:12;;;;;;;;;;;;;;;24.28;48.42;94602.34;4973087;28;9601;-61
2024/03/16 09:06:55;;;;;;;;;;;;;;;24.20;48.60;94604.81;4977885;28;9248;-61
2024/03/16 09:09:21;;;;;;;;;;;;;;;24.14;48.76;94600.56;4973992;28;9087;-61
2024/03/16 09:12:04;;;;;;;;;;;;;;;24.05;48.55;94598.78;4974789;28;8712;-61
2024/03/16 09:14:52;;;;;;;;;;;;;;;24.02;48.18;94610.75;4955239;28;9342;-61
2024/03/16 09:17:48;;;;;;;;;;;;;;;23.92;48.76;94610.19;4947307;28;9746;-61
2024/03/16 09:23:39;;;;;;;;;;;;;;;23.82;48.92;94613.66;4972860;28;9146;-61
2024/03/16 09:26:06;;;;;;;;;;;;;;;23.76;48.68;94607.41;4972797;28;8967;-70
2024/03/16 09:28:37;;;;;;;;;;;;;;;23.73;49.55;94614.63;4944239;28;9079;-69
2024/03/16 09:31:05;;;;;;;;;;;;;;;23.74;48.71;94618.13;4957306;28;9032;-69
2024/03/16 09:33:33;;;;;;;;;;;;;;;23.71;48.58;94616.34;4953859;29;8998;-70
2024/03/16 09:35:59;;;;;;;;;;;;;;;23.66;49.31;94617.09;4947624;28;8718;-70
2024/03/16 09:38:59;;;;;;;;;;;;;;;23.65;49.16;94615.59;5007170;28;9303;-70
2024/03/16 09:41:37;;;;;;;;;;;;;;;23.56;49.25;94610.28;5019637;28;9003;-70
2024/03/16 09:44:28;;;;;;;;;;;;;;;23.61;48.76;94615.81;5019559;28;9638;-70
2024/03/16 09:47:14;;;;;;;;;;;;;;;23.59;49.33;94620.31;5018327;28;9954;-69
2024/03/16 09:49:56;;;;;;;;;;;;;;;23.54;49.15;94615.53;5029287;28;9035;-70
2024/03/16 09:56:16;;;;;;;;;;;;;;;23.54;48.73;94615.53;5025319;28;9017;-69
2024/03/16 09:58:43;;;;;;;;;;;;;;;23.52;49.17;94621.50;5057172;28;7052;-70
2024/03/16 10:01:19;;;;;;;;;;;;;;;23.52;49.01;94612.53;5056706;28;8999;-70
2024/03/16 10:03:49;;;;;;;;;;;;;;;23.52;48.89;94612.53;5053037;28;9056;-70
2024/03/16 10:06:44;;;;;;;;;;;;;;;23.52;49.24;94624.25;5053788;28;8737;-69
2024/03/16 10:09:25;;;;;;;;;;;;;;;23.52;49.00;94621.50;5038823;28;9067;-69
2024/03/16 10:12:19;;;;;;;;;;;;;;;23.57;49.03;94625.53;5038881;28;8699;-69
2024/03/16 10:15:31;;;;;;;;;;;;;;;23.56;49.24;94635.00;5037323;28;9723;-69
2024/03/16 10:18:17;;;;;;;;;;;;;;;23.60;48.73;94635.50;5018439;28;9810;-70
2024/03/16 10:21:03;;;;;;;;;;;;;;;23.63;48.75;94634.53;5018188;28;9027;-69
2024/03/16 10:23:46;;;;;;;;;;;;;;;23.67;49.38;94641.31;5018956;28;9339;-69
2024/03/16 10:26:15;;;;;;;;;;;;;;;23.71;49.04;94632.81;5019552;28;9430;-69
2024/03/16 10:28:41;;;;;;;;;;;;;;;23.78;48.84;94641.38;5034872;28;9694;-69
2024/03/16 10:31:10;;;;;;;;;;;;;;;23.82;48.50;94641.88;5040849;28;9355;-70
2024/03/16 10:33:39;;;;;;;;;;;;;;;23.90;48.66;94637.41;5038415;28;8816;-69
2024/03/16 10:36:08;;;;;;;;;;;;;;;23.98;48.26;94646.69;5048807;28;7153;-64
2024/03/16 10:41:55;;;;;;;;;;;;;;;24.09;48.40;94626.78;5034852;28;9567;-64
2024/03/16 10:44:30;;;;;;;;;;;;;;;24.25;47.94;94637.06;5018638;28;9327;-64
2024/03/16 10:47:17;;;;;;;;;;;;;;;24.39;47.88;94644.34;5042286;28;9051;-64
2024/03/16 10:49:58;;;;;;;;;;;;;;;24.49;47.48;94648.34;5055118;28;9035;-64
2024/03/16 10:52:41;;;;;;;;;;;;;;;24.57;47.24;94649.38;5035733;28;9663;-64
2024/03/16 10:55:39;;;;;;;;;;;;;;;24.64;46.73;94653.66;5042974;28;9363;-64
2024/03/16 10:58:25;;;;;;;;;;;;;;;24.68;46.68;94654.16;5037113;28;9510;-64
2024/03/16 11:01:18;;;;;;;;;;;;;;;24.75;46.13;94647.44;5047485;28;9513;-64
2024/03/16 11:03:55;;;;;;;;;;;;;;;24.77;46.34;94651.19;5074114;28;8725;-65
2024/03/16 11:06:37;;;;;;;;;;;;;;;24.85;46.00;94654.94;5046911;28;9384;-64
2024/03/16 11:09:32;;;;;;;;;;;;;;;24.88;46.16;94651.19;5057361;28;7259;-64
2024/03/16 11:12:02;;;;;;;;;;;;;;;24.88;46.10;94644.94;5057498;28;9248;-64
2024/03/16 11:14:37;;;;;;;;;;;;;;;24.93;45.73;94646.94;5040106;28;9168;-64
2024/03/16 11:17:26;;;;;;;;;;;;;;;24.96;45.55;94656.94;5056869;28;9013;-65
2024/03/16 11:20:34;;;;;;;;;;;;;;;24.96;45.54;94640.44;5056777;28;8878;-65
2024/03/16 11:23:22;;;;;;;;;;;;;;;24.98;45.63;94641.44;5044103;28;9525;-64
2024/03/16 11:29:22;;;;;;;;;;;;;;;24.98;45.96;94635.94;4981399;28;9256;-64
2024/03/16 11:31:53;;;;;;;;;;;;;;;25.00;45.89;94635.44;4984743;28;8127;-64
2024/03/16 11:34:25;;;;;;;;;;;;;;;25.00;45.57;94629.94;4964288;28;9303;-65
2024/03/16 11:37:14;;;;;;;;;;;;;;;25.01;45.61;94637.66;4939722;28;9135;-64
2024/03/16 11:40:12;;;;;;;;;;;;;;;25.03;45.37;94637.94;4939782;28;9358;-65
2024/03/16 11:42:56;;;;;;;;;;;;;;;25.03;45.73;94635.19;4996523;28;9004;-65
2024/03/16 11:45:55;;;;;;;;;;;;;;;25.04;45.26;94624.91;4997443;28;9067;-67
2024/03/16 11:48:22;;;;;;;;;;;;;;;25.05;46.18;94631.94;4936451;29;9024;-68
2024/03/16 11:50:51;;;;;;;;;;;;;;;25.06;45.60;94633.41;4936862;28;9279;-68
2024/03/16 11:53:19;;;;;;;;;;;;;;;25.05;45.82;94638.19;4938949;28;9389;-68
2024/03/16 11:55:45;;;;;;;;;;;;;;;25.08;45.51;94637.19;4949193;28;8986;-68
2024/03/16 11:58:28;;;;;;;;;;;;;;;25.09;45.48;94638.69;4954996;28;9546;-68
2024/03/16 12:01:33;;;;;;;;;;;;;;;25.09;45.61;94641.44;4954663;28;9244;-68
2024/03/16 12:04:12;;;;;;;;;;;;;;;25.09;45.46;94633.19;4898125;29;9435;-68
2024/03/16 12:06:59;;;;;;;;;;;;;;;25.11;45.81;94635.44;4912921;29;7312;-68
2024/03/16 12:09:37;;;;;;;;;;;;;;;25.11;45.35;94632.69;4916599;29;9174;-68
2024/03/16 12:12:07;;;;;;;;;;;;;;;25.10;45.40;94651.19;4915178;29;9361;-68
2024/03/16 12:14:34;;;;;;;;;;;;;;;25.10;45.41;94640.16;4905478;29;8708;-68
2024/03/16 12:17:00;;;;;;;;;;;;;;;25.10;45.11;94642.19;4914622;29;8980;-68
2024/03/16 12:19:42;;;;;;;;;;;;;;;25.11;45.20;94658.19;4915865;29;8989;-68
2024/03/16 12:22:43;;;;;;;;;;;;;;;25.11;44.95;94660.19;4912664;29;9794;-68
2024/03/16 12:25:25;;;;;;;;;;;;;;;25.14;45.05;94657.19;4973527;28;9088;-69
2024/03/16 12:27:54;;;;;;;;;;;;;;;25.13;45.19;94655.69;4957474;28;9377;-68
2024/03/16 12:30:22;;;;;;;;;;;;;;;25.15;45.62;94657.94;4963607;28;8761;-68
2024/03/16 12:32:55;;;;;;;;;;;;;;;25.15;44.76;94655.94;4972174;28;9007;-68
2024/03/16 12:35:21;;;;;;;;;;;;;;;25.17;44.94;94653.44;5017444;28;9474;-68
2024/03/16 12:37:49;;;;;;;;;;;;;;;25.14;45.35;94643.41;5016022;28;9395;-69
2024/03/16 12:40:17;;;;;;;;;;;;;;;25.19;45.78;94648.19;5032130;28;9419;-68
2024/03/16 12:42:44;;;;;;;;;;;;;;;25.18;45.19;94646.69;5032280;28;9035;-68
2024/03/16 12:45:12;;;;;;;;;;;;;;;25.20;44.77;94646.94;5026058;28;7185;-68
2024/03/16 12:47:47;;;;;;;;;;;;;;;25.20;45.12;94638.69;5029293;28;9353;-68
2024/03/16 12:50:13;;;;;;;;;;;;;;;25.19;45.10;94642.66;5034896;28;9253;-68
2024/03/16 12:52:38;;;;;;;;;;;;;;;25.20;45.04;94641.44;5028573;28;8998;-68
2024/03/16 12:55:09;;;;;;;;;;;;;;;25.15;45.26;94636.69;5014172;28;9231;-65
2024/03/16 12:57:35;;;;;;;;;;;;;;;25.19;45.14;94630.91;5034470;28;9620;-61
2024/03/16 13:00:05;;;;;;;;;;;;;;;25.21;45.42;94634.66;5036173;28;9840;-61
2024/03/16 13:02:33;;;;;;;;;;;;;;;25.19;45.02;94620.66;5050821;28;7128;-61
2024/03/16 13:05:11;;;;;;;;;;;;;;;25.22;44.97;94624.41;5049665;28;9255;-61
2024/03/16 13:07:39;;;;;;;;;;;;;;;25.21;45.11;94615.38;5047332;28;9081;-61
2024/03/16 13:10:15;;;;;;;;;;;;;;;25.23;45.11;94603.88;5054256;28;7202;-61
2024/03/16 13:12:42;;;;;;;;;;;;;;;25.19;45.06;94608.88;5032044;28;9013;-61
2024/03/16 13:15:17;;;;;;;;;;;;;;;25.22;45.43;94627.16;5052944;28;9410;-62
2024/03/16 13:17:46;;;;;;;;;;;;;;;25.21;45.63;94622.91;5034000;28;9254;-61
2024/03/16 13:20:42;;;;;;;;;;;;;;;25.22;45.02;94636.19;5034669;28;9790;-61
2024/03/16 13:23:10;;;;;;;;;;;;;;;25.23;45.27;94634.91;5029052;28;7168;-61
2024/03/16 13:25:38;;;;;;;;;;;;;;;25.25;45.44;94631.66;5022226;28;9495;-61
2024/03/16 13:28:05;;;;;;;;;;;;;;;25.21;44.95;94622.91;5016436;28;9079;-61
2024/03/16 13:30:31;;;;;;;;;;;;;;;25.25;44.94;94618.63;5035438;28;9072;-61
2024/03/16 13:33:00;;;;;;;;;;;;;;;25.24;45.12;94632.91;5032533;28;8723;-61
2024/03/16 13:35:31;;;;;;;;;;;;;;;25.28;44.96;94636.16;5035604;28;9577;-61
2024/03/16 13:37:57;;;;;;;;;;;;;;;25.26;45.11;94627.66;5046647;28;7273;-61
2024/03/16 13:40:29;;;;;;;;;;;;;;;25.22;44.53;94630.66;5015275;28;9363;-61
2024/03/16 13:43:13;;;;;;;;;;;;;;;25.28;45.01;94639.66;5031762;28;9024;-61
2024/03/16 13:45:58;;;;;;;;;;;;;;;25.31;45.30;94648.94;5015474;28;8709;-61
2024/03/16 13:48:24;;;;;;;;;;;;;;;25.31;44.89;94649.69;5032336;28;8969;-61
2024/03/16 13:50:52;;;;;;;;;;;;;;;25.34;44.13;94645.16;5031893;28;7033;-61
2024/03/16 13:53:20;;;;;;;;;;;;;;;25.32;44.43;94636.66;5008429;28;9419;-61
2024/03/16 13:55:52;;;;;;;;;;;;;;;25.37;44.55;94646.91;4997263;28;9093;-61
2024/03/16 13:58:18;;;;;;;;;;;;;;;25.38;44.92;94640.16;4993120;28;9280;-61
2024/03/16 14:00:46;;;;;;;;;;;;;;;25.38;44.91;94645.66;4999419;28;9557;-61
2024/03/16 14:03:30;;;;;;;;;;;;;;;25.38;44.71;94638.13;5008457;28;8484;-61
2024/03/16 14:05:57;;;;;;;;;;;;;;;25.39;45.04;94636.91;5010399;28;9074;-61
2024/03/16 14:08:24;;;;;;;;;;;;;;;25.34;45.11;94645.16;5011359;28;8210;-61
2024/03/16 14:11:21;;;;;;;;;;;;;;;25.38;44.52;94642.91;5011853;28;9382;-61
2024/03/16 14:13:50;;;;;;;;;;;;;;;25.36;45.05;94632.38;5014194;28;9478;-61
2024/03/16 14:17:00;;;;;;;;;;;;;;;25.38;44.43;94643.66;5015144;28;9038;-61
2024/03/16 14:19:29;;;;;;;;;;;;;;;25.36;44.79;94637.88;4991878;28;9498;-61